Time;durP1;ratioP1;P1;durP2;ratioP2;P2;SDS_P1;SDS_P2;PMS_P1;PMS_P2;Temp;Humidity;BMP_temperature;BMP_pressure;BME280_temperature;BME280_humidity;BME280_pressure;Samples;Min_cycle;Max_cycle;Signal;HPM_P1;HPM_P2
2023/12/06 00:00:59;;;;;;;14.50;5.97;;;5.30;99.90;;;;;;5075916;28;20041;-65
2023/12/06 00:03:26;;;;;;;10.65;5.70;;;5.30;99.90;;;;;;5074470;28;20102;-65
2023/12/06 00:05:53;;;;;;;10.93;5.82;;;5.30;99.90;;;;;;5075934;28;20045;-64
2023/12/06 00:08:19;;;;;;;14.10;5.95;;;5.30;99.90;;;;;;5075858;28;20040;-66
2023/12/06 00:10:47;;;;;;;10.90;5.20;;;5.40;99.90;;;;;;5075608;28;20044;-65
2023/12/06 00:13:14;;;;;;;12.63;6.18;;;5.40;99.90;;;;;;5076004;28;20041;-66
2023/12/06 00:15:41;;;;;;;10.75;4.97;;;5.40;99.90;;;;;;5075436;28;20043;-66
2023/12/06 00:18:07;;;;;;;12.73;5.22;;;5.40;99.90;;;;;;5057305;28;20509;-70
2023/12/06 00:20:34;;;;;;;8.45;5.25;;;5.40;99.90;;;;;;5075664;28;20469;-70
2023/12/06 00:23:02;;;;;;;10.50;4.93;;;5.40;99.90;;;;;;5075513;28;20032;-70
2023/12/06 00:25:28;;;;;;;11.90;5.10;;;5.40;99.90;;;;;;5075723;28;20033;-70
2023/12/06 00:27:55;;;;;;;8.93;4.82;;;5.40;99.90;;;;;;5081880;28;20042;-68
2023/12/06 00:30:22;;;;;;;8.48;4.72;;;5.30;99.90;;;;;;5095216;28;20044;-68
2023/12/06 00:32:49;;;;;;;8.55;4.78;;;5.30;99.90;;;;;;5094886;28;20477;-68
2023/12/06 00:35:16;;;;;;;12.73;4.95;;;5.30;99.90;;;;;;5095163;28;20036;-69
2023/12/06 00:37:43;;;;;;;12.93;4.90;;;5.30;99.90;;;;;;5095727;28;20048;-68
2023/12/06 00:40:10;;;;;;;12.98;5.07;;;5.30;99.90;;;;;;5095224;28;20047;-68
2023/12/06 00:42:36;;;;;;;9.27;5.05;;;5.30;99.90;;;;;;5094931;28;20109;-69
2023/12/06 00:45:03;;;;;;;9.02;4.88;;;5.40;99.90;;;;;;5094975;28;20131;-69
2023/12/06 00:47:30;;;;;;;14.90;5.30;;;5.40;99.90;;;;;;5095465;28;20062;-69
2023/12/06 00:49:57;;;;;;;11.80;4.78;;;5.40;99.90;;;;;;5095493;28;20036;-69
2023/12/06 00:52:23;;;;;;;13.55;5.10;;;5.30;99.90;;;;;;5095021;28;20046;-68
2023/12/06 00:54:57;;;;;;;11.45;5.15;;;5.40;99.90;;;;;;5094891;28;20036;-69
2023/12/06 00:57:24;;;;;;;9.73;4.85;;;5.40;99.90;;;;;;5095413;28;20488;-68
2023/12/06 00:59:53;;;;;;;7.05;4.70;;;5.40;99.90;;;;;;5094568;28;20079;-69
2023/12/06 01:02:19;;;;;;;10.50;4.82;;;5.30;99.90;;;;;;5094032;28;20400;-69
2023/12/06 01:04:50;;;;;;;10.23;5.85;;;5.40;99.90;;;;;;5095131;28;20385;-68
2023/12/06 01:07:17;;;;;;;9.25;5.05;;;5.30;99.90;;;;;;5094546;28;20036;-69
2023/12/06 01:09:45;;;;;;;11.68;5.50;;;5.30;99.90;;;;;;5094585;28;20036;-69
2023/12/06 01:12:12;;;;;;;10.10;4.90;;;5.30;99.90;;;;;;5094901;28;20060;-68
2023/12/06 01:14:39;;;;;;;14.20;5.40;;;5.30;99.90;;;;;;5094274;28;20040;-64
2023/12/06 01:17:05;;;;;;;13.35;5.50;;;5.30;99.90;;;;;;5094537;28;20089;-65
2023/12/06 01:19:32;;;;;;;9.32;5.20;;;5.30;99.90;;;;;;5094348;28;20040;-65
2023/12/06 01:21:59;;;;;;;10.15;4.80;;;5.30;99.90;;;;;;5094904;28;20040;-64
2023/12/06 01:24:26;;;;;;;12.00;4.50;;;5.30;99.90;;;;;;5094497;28;20050;-64
2023/12/06 01:26:53;;;;;;;8.50;4.57;;;5.20;99.90;;;;;;5094396;28;20114;-64
2023/12/06 01:29:20;;;;;;;10.23;5.22;;;5.20;99.90;;;;;;5094505;28;20033;-65
2023/12/06 01:31:47;;;;;;;10.00;4.63;;;5.20;99.90;;;;;;5094530;28;20089;-64
2023/12/06 01:34:14;;;;;;;7.68;3.92;;;5.20;99.90;;;;;;5094147;28;20032;-64
2023/12/06 01:36:41;;;;;;;9.38;4.60;;;5.30;99.90;;;;;;5093148;28;20078;-64
2023/12/06 01:39:08;;;;;;;7.30;3.65;;;5.30;99.90;;;;;;5094049;28;20459;-64
2023/12/06 01:41:35;;;;;;;10.27;4.32;;;5.30;99.90;;;;;;5094017;28;20528;-65
2023/12/06 01:44:02;;;;;;;10.75;4.38;;;5.40;99.90;;;;;;5094065;28;20120;-64
2023/12/06 01:46:29;;;;;;;7.70;4.25;;;5.40;99.90;;;;;;5094146;28;20043;-65
2023/12/06 01:48:56;;;;;;;9.50;4.55;;;5.40;99.90;;;;;;5094097;28;20085;-64
2023/12/06 01:51:22;;;;;;;9.93;4.10;;;5.40;99.90;;;;;;5094129;28;20059;-63
2023/12/06 01:53:49;;;;;;;6.43;4.13;;;5.40;99.90;;;;;;5094098;28;20086;-64
2023/12/06 01:56:16;;;;;;;9.93;4.00;;;5.40;99.90;;;;;;5094136;28;20040;-64
2023/12/06 01:58:43;;;;;;;10.68;4.20;;;5.40;99.90;;;;;;5094205;28;20541;-64
2023/12/06 02:01:09;;;;;;;7.70;4.35;;;5.30;99.90;;;;;;5094442;28;20123;-68
2023/12/06 02:03:36;;;;;;;6.15;3.75;;;5.40;99.90;;;;;;5094316;28;20217;-65
2023/12/06 02:06:04;;;;;;;9.23;4.57;;;5.40;99.90;;;;;;5094259;28;20067;-66
2023/12/06 02:08:30;;;;;;;10.55;4.22;;;5.40;99.90;;;;;;5094306;28;20114;-65
2023/12/06 02:10:57;;;;;;;13.05;4.90;;;5.40;99.90;;;;;;5094653;28;20126;-65
2023/12/06 02:13:24;;;;;;;9.95;4.22;;;5.40;99.90;;;;;;5094304;28;20051;-65
2023/12/06 02:15:51;;;;;;;8.07;4.03;;;5.40;99.90;;;;;;5094127;28;20035;-65
2023/12/06 02:18:18;;;;;;;6.70;4.28;;;5.40;99.90;;;;;;5092593;28;20058;-67
2023/12/06 02:20:45;;;;;;;11.63;4.10;;;5.40;99.90;;;;;;5093039;28;20059;-65
2023/12/06 02:23:12;;;;;;;10.98;4.50;;;5.40;99.90;;;;;;5094188;28;20497;-64
2023/12/06 02:25:38;;;;;;;9.43;4.05;;;5.40;99.90;;;;;;5094764;28;20040;-64
2023/12/06 02:28:05;;;;;;;8.07;3.97;;;5.40;99.90;;;;;;5096778;28;20044;-64
2023/12/06 02:31:09;;;;;;;9.57;3.88;;;5.40;99.90;;;;;;5098423;28;20043;-64
2023/12/06 02:33:36;;;;;;;9.35;4.47;;;5.40;99.90;;;;;;5098139;28;20127;-64
2023/12/06 02:36:03;;;;;;;9.80;4.18;;;5.40;99.90;;;;;;5097898;28;20040;-69
2023/12/06 02:38:30;;;;;;;13.30;4.32;;;5.40;99.90;;;;;;5097963;28;20131;-70
2023/12/06 02:40:57;;;;;;;11.20;4.60;;;5.40;99.90;;;;;;5097835;28;20039;-70
2023/12/06 02:43:24;;;;;;;11.70;4.43;;;5.40;99.90;;;;;;5097224;28;20055;-70
2023/12/06 02:45:51;;;;;;;8.52;3.83;;;5.30;99.90;;;;;;5097623;28;20477;-70
2023/12/06 02:48:18;;;;;;;9.35;3.67;;;5.20;99.90;;;;;;5097369;28;20044;-70
2023/12/06 02:50:45;;;;;;;11.70;4.15;;;5.30;99.90;;;;;;5097883;28;20067;-70
2023/12/06 02:53:11;;;;;;;13.85;3.97;;;5.20;99.90;;;;;;5096607;28;20126;-70
2023/12/06 02:55:38;;;;;;;9.55;3.65;;;5.20;99.90;;;;;;5097028;28;20032;-70
2023/12/06 02:58:05;;;;;;;9.60;3.50;;;5.20;99.90;;;;;;5096981;28;20078;-66
2023/12/06 03:00:32;;;;;;;9.10;3.80;;;5.20;99.90;;;;;;5096976;28;20044;-66
2023/12/06 03:02:59;;;;;;;8.75;3.92;;;5.20;99.90;;;;;;5097321;28;20044;-65
2023/12/06 03:05:25;;;;;;;13.15;4.60;;;5.20;99.90;;;;;;5097412;28;20051;-65
2023/12/06 03:07:52;;;;;;;10.30;3.65;;;5.20;99.90;;;;;;5097011;28;20062;-66
2023/12/06 03:10:19;;;;;;;8.55;3.78;;;5.10;99.90;;;;;;5096665;28;20044;-66
2023/12/06 03:12:46;;;;;;;11.93;4.35;;;5.10;99.90;;;;;;5097510;28;20079;-66
2023/12/06 03:15:13;;;;;;;9.32;3.63;;;5.00;99.90;;;;;;5097391;28;20032;-66
2023/12/06 03:17:40;;;;;;;8.98;3.50;;;5.00;99.90;;;;;;5097301;28;20035;-66
2023/12/06 03:20:08;;;;;;;14.88;4.90;;;5.00;99.90;;;;;;5096794;28;20044;-65
2023/12/06 03:22:35;;;;;;;12.18;3.83;;;4.90;99.90;;;;;;5096838;28;20044;-65
2023/12/06 03:25:02;;;;;;;12.90;4.25;;;4.90;99.90;;;;;;5096437;28;20044;-65
2023/12/06 03:27:29;;;;;;;8.75;4.18;;;4.90;99.90;;;;;;5096730;28;20093;-65
2023/12/06 03:29:56;;;;;;;12.75;4.57;;;4.80;99.90;;;;;;5096432;28;20036;-66
2023/12/06 03:32:23;;;;;;;10.02;3.90;;;4.80;99.90;;;;;;5096976;28;20042;-65
2023/12/06 03:34:49;;;;;;;12.48;4.60;;;4.90;99.90;;;;;;5096615;28;20127;-65
2023/12/06 03:37:16;;;;;;;13.73;4.60;;;4.90;99.90;;;;;;5096281;28;20044;-66
2023/12/06 03:39:43;;;;;;;11.18;4.97;;;4.80;99.90;;;;;;5096256;28;20044;-66
2023/12/06 03:42:10;;;;;;;13.18;5.00;;;4.80;99.90;;;;;;5096330;28;20058;-66
2023/12/06 03:44:37;;;;;;;9.57;4.57;;;4.70;99.90;;;;;;5096544;28;20043;-65
2023/12/06 03:47:03;;;;;;;10.85;4.80;;;4.70;99.90;;;;;;5096493;28;20032;-63
2023/12/06 03:49:30;;;;;;;11.90;4.82;;;4.60;99.90;;;;;;5096679;28;20036;-64
2023/12/06 03:51:57;;;;;;;13.80;4.47;;;4.50;99.90;;;;;;5096291;28;20391;-64
2023/12/06 03:54:24;;;;;;;11.70;5.07;;;4.50;99.90;;;;;;5096117;28;20465;-65
2023/12/06 03:56:50;;;;;;;15.45;5.57;;;4.40;99.90;;;;;;5096080;28;20093;-64
2023/12/06 03:59:17;;;;;;;12.30;4.90;;;4.40;99.90;;;;;;5095775;28;20040;-64
2023/12/06 04:01:44;;;;;;;18.50;5.20;;;4.30;99.90;;;;;;5096291;28;20036;-64
2023/12/06 04:04:14;;;;;;;12.98;5.00;;;4.30;99.90;;;;;;5095896;28;20046;-64
2023/12/06 04:06:41;;;;;;;9.07;4.50;;;4.20;99.90;;;;;;5095873;28;20126;-68
2023/12/06 04:09:08;;;;;;;10.55;5.05;;;4.20;99.90;;;;;;5095809;28;20082;-68
2023/12/06 04:11:34;;;;;;;14.65;4.80;;;4.10;99.90;;;;;;5094894;28;20506;-68
2023/12/06 04:14:01;;;;;;;13.02;5.43;;;4.00;99.90;;;;;;5096208;28;20419;-68
2023/12/06 04:16:28;;;;;;;13.90;5.55;;;4.00;99.90;;;;;;5095759;28;20071;-69
2023/12/06 04:18:55;;;;;;;15.30;5.68;;;3.90;99.90;;;;;;5095356;28;20032;-68
2023/12/06 04:21:22;;;;;;;17.65;4.90;;;3.90;99.90;;;;;;5095765;28;20064;-68
2023/12/06 04:23:48;;;;;;;10.50;4.85;;;3.90;99.90;;;;;;5095652;28;20036;-68
2023/12/06 04:26:15;;;;;;;11.90;5.35;;;3.90;99.90;;;;;;5095670;28;20488;-68
2023/12/06 04:28:42;;;;;;;10.75;4.90;;;3.80;99.90;;;;;;5095302;28;20040;-68
2023/12/06 04:31:09;;;;;;;12.38;5.38;;;3.80;99.90;;;;;;5095555;28;20043;-65
2023/12/06 04:33:35;;;;;;;13.27;4.85;;;3.80;99.90;;;;;;5095893;28;20032;-65
2023/12/06 04:36:02;;;;;;;8.88;5.00;;;3.70;99.90;;;;;;5095502;28;20059;-65
2023/12/06 04:38:29;;;;;;;10.63;5.30;;;3.70;99.90;;;;;;5095032;28;20066;-64
2023/12/06 04:40:56;;;;;;;14.10;5.40;;;3.70;99.90;;;;;;5095231;28;20123;-64
2023/12/06 04:43:23;;;;;;;13.25;5.38;;;3.60;99.90;;;;;;5094997;28;20052;-64
2023/12/06 04:45:50;;;;;;;8.60;4.47;;;3.60;99.90;;;;;;5095543;28;20117;-64
2023/12/06 04:48:17;;;;;;;11.82;5.28;;;3.50;99.90;;;;;;5093587;28;20044;-65
2023/12/06 04:50:43;;;;;;;13.15;5.28;;;3.50;99.90;;;;;;5094153;28;20040;-65
2023/12/06 04:53:10;;;;;;;14.70;5.22;;;3.40;99.90;;;;;;5095102;28;20040;-65
2023/12/06 04:55:37;;;;;;;11.68;5.35;;;3.40;99.90;;;;;;5094803;28;20499;-65
2023/12/06 04:58:03;;;;;;;11.65;5.75;;;3.30;99.90;;;;;;5095358;28;20096;-65
2023/12/06 05:00:30;;;;;;;9.75;5.55;;;3.30;99.90;;;;;;5095373;28;20401;-65
2023/12/06 05:02:57;;;;;;;15.85;5.95;;;3.30;99.90;;;;;;5095266;28;20044;-65
2023/12/06 05:05:24;;;;;;;14.00;5.10;;;3.30;99.90;;;;;;5094968;28;20048;-65
2023/12/06 05:07:51;;;;;;;13.85;5.43;;;3.30;99.90;;;;;;5095114;28;20426;-65
2023/12/06 05:10:18;;;;;;;14.55;6.03;;;3.20;99.90;;;;;;5094805;28;20040;-65
2023/12/06 05:12:45;;;;;;;11.82;5.53;;;3.20;99.90;;;;;;5094946;28;20036;-66
2023/12/06 05:15:12;;;;;;;14.43;6.13;;;3.10;99.90;;;;;;5094658;28;20032;-66
2023/12/06 05:17:39;;;;;;;17.67;6.07;;;3.10;99.90;;;;;;5094602;28;20036;-65
2023/12/06 05:20:06;;;;;;;15.98;6.22;;;3.10;99.90;;;;;;5094230;28;20047;-65
2023/12/06 05:22:33;;;;;;;17.85;6.70;;;3.10;99.90;;;;;;5094661;28;20469;-65
2023/12/06 05:25:00;;;;;;;11.75;5.97;;;3.10;99.90;;;;;;5094504;28;20468;-65
2023/12/06 05:27:27;;;;;;;14.38;6.60;;;3.10;99.90;;;;;;5093635;28;20127;-65
2023/12/06 05:29:54;;;;;;;14.82;5.95;;;3.00;99.90;;;;;;5094149;28;20059;-65
2023/12/06 05:32:23;;;;;;;12.93;6.43;;;3.00;99.90;;;;;;5094545;28;20040;-65
2023/12/06 05:34:50;;;;;;;13.18;7.38;;;3.00;99.90;;;;;;5094301;28;20036;-65
2023/12/06 05:37:17;;;;;;;13.20;6.95;;;3.00;99.90;;;;;;5094285;28;20039;-65
2023/12/06 05:39:44;;;;;;;13.77;6.57;;;2.90;99.90;;;;;;5093981;28;20043;-65
2023/12/06 05:42:10;;;;;;;13.65;6.60;;;2.90;99.90;;;;;;5094045;28;20047;-65
2023/12/06 05:44:37;;;;;;;12.60;7.07;;;2.80;99.90;;;;;;5093919;28;20386;-65
2023/12/06 05:47:06;;;;;;;12.25;6.68;;;2.80;99.90;;;;;;5093995;28;20118;-64
2023/12/06 05:49:33;;;;;;;16.83;7.72;;;2.80;99.90;;;;;;5093896;28;20040;-65
2023/12/06 05:52:00;;;;;;;13.98;6.93;;;2.80;99.90;;;;;;5094242;28;20148;-69
2023/12/06 05:54:27;;;;;;;13.30;6.93;;;2.80;99.90;;;;;;5094340;28;20044;-69
2023/12/06 05:56:54;;;;;;;15.27;7.78;;;2.80;99.90;;;;;;5094371;28;20536;-69
2023/12/06 05:59:20;;;;;;;12.80;6.85;;;2.80;99.90;;;;;;5093821;28;20455;-69
2023/12/06 06:01:47;;;;;;;14.55;7.38;;;2.70;99.90;;;;;;5094294;28;20486;-69
2023/12/06 06:04:14;;;;;;;14.18;7.13;;;2.70;99.90;;;;;;5093918;28;20043;-69
2023/12/06 06:06:41;;;;;;;12.88;6.38;;;2.70;99.90;;;;;;5093805;28;20039;-65
2023/12/06 06:09:09;;;;;;;16.98;7.55;;;2.60;99.90;;;;;;5093742;28;20119;-65
2023/12/06 06:11:35;;;;;;;16.08;7.53;;;2.60;99.90;;;;;;5093770;28;20044;-65
2023/12/06 06:14:02;;;;;;;14.32;7.18;;;2.70;99.90;;;;;;5093551;28;20040;-65
2023/12/06 06:16:29;;;;;;;13.90;7.22;;;2.60;99.90;;;;;;5093085;28;20393;-65
2023/12/06 06:18:56;;;;;;;12.23;7.47;;;2.60;99.90;;;;;;5093723;28;20048;-65
2023/12/06 06:21:23;;;;;;;16.23;7.60;;;2.60;99.90;;;;;;5093747;28;20040;-65
2023/12/06 06:23:50;;;;;;;12.05;7.28;;;2.60;99.90;;;;;;5093858;28;20051;-65
2023/12/06 06:26:17;;;;;;;12.52;7.15;;;2.50;99.90;;;;;;5093729;28;20043;-65
2023/12/06 06:28:48;;;;;;;13.50;7.40;;;2.50;99.90;;;;;;5092178;28;20036;-69
2023/12/06 06:31:15;;;;;;;16.00;7.53;;;2.50;99.90;;;;;;5093488;28;20067;-69
2023/12/06 06:33:42;;;;;;;14.32;7.60;;;2.50;99.90;;;;;;5093708;28;20043;-69
2023/12/06 06:36:09;;;;;;;13.93;7.80;;;2.40;99.90;;;;;;5093842;28;20028;-69
2023/12/06 06:38:37;;;;;;;18.35;7.72;;;2.40;99.90;;;;;;5093366;28;20431;-69
2023/12/06 06:41:04;;;;;;;17.40;8.18;;;2.40;99.90;;;;;;5093344;28;20048;-69
2023/12/06 06:43:31;;;;;;;19.20;7.97;;;2.40;99.90;;;;;;5093374;28;20538;-69
2023/12/06 06:45:58;;;;;;;18.20;7.35;;;2.40;99.90;;;;;;5075663;28;20056;-69
2023/12/06 06:48:25;;;;;;;13.30;7.80;;;2.40;99.90;;;;;;5093402;28;20374;-65
2023/12/06 06:50:52;;;;;;;12.68;7.57;;;2.30;99.90;;;;;;5093761;28;20049;-65
2023/12/06 06:53:19;;;;;;;14.15;8.25;;;2.30;99.90;;;;;;5093725;28;20044;-65
2023/12/06 06:55:46;;;;;;;12.50;7.47;;;2.30;99.90;;;;;;5093099;28;20040;-65
2023/12/06 06:58:12;;;;;;;19.08;7.97;;;2.30;99.90;;;;;;5093621;28;20477;-65
2023/12/06 07:00:41;;;;;;;14.95;8.32;;;2.30;99.90;;;;;;5093561;28;20040;-65
2023/12/06 07:03:08;;;;;;;17.63;7.75;;;2.20;99.90;;;;;;5093588;28;20040;-65
2023/12/06 07:05:34;;;;;;;14.50;8.70;;;2.20;99.90;;;;;;5093646;28;20106;-65
2023/12/06 07:08:01;;;;;;;19.13;9.50;;;2.20;99.90;;;;;;5093473;28;20068;-65
2023/12/06 07:10:28;;;;;;;13.90;8.90;;;2.20;99.90;;;;;;5093286;28;20074;-65
2023/12/06 07:12:55;;;;;;;14.75;9.45;;;2.20;99.90;;;;;;5094024;28;20424;-65
2023/12/06 07:15:22;;;;;;;16.55;9.13;;;2.20;99.90;;;;;;5095409;28;20051;-65
2023/12/06 07:17:49;;;;;;;14.73;9.38;;;2.20;99.90;;;;;;5097256;28;20040;-65
2023/12/06 07:20:17;;;;;;;18.00;9.85;;;2.30;99.90;;;;;;5097193;28;20047;-65
2023/12/06 07:22:44;;;;;;;15.05;8.90;;;2.20;99.90;;;;;;5096759;28;20086;-65
2023/12/06 07:25:15;;;;;;;15.90;9.35;;;2.20;99.90;;;;;;5096753;28;20052;-65
2023/12/06 07:27:45;;;;;;;18.13;9.15;;;2.20;99.90;;;;;;5096760;28;20047;-65
2023/12/06 07:30:12;;;;;;;37.17;10.00;;;2.20;99.90;;;;;;5096688;28;20044;-65
2023/12/06 07:32:39;;;;;;;43.78;10.95;;;2.20;99.90;;;;;;5096601;28;20054;-65
2023/12/06 07:35:18;;;;;;;44.85;11.00;;;2.20;99.90;;;;;;5096916;28;20044;-65
2023/12/06 07:37:45;;;;;;;41.60;11.80;;;2.20;99.90;;;;;;5096549;28;20040;-65
2023/12/06 07:40:13;;;;;;;32.72;11.15;;;2.30;99.90;;;;;;5096518;28;20040;-65
2023/12/06 07:42:40;;;;;;;26.65;10.68;;;2.20;99.90;;;;;;5095836;28;20457;-65
2023/12/06 07:45:11;;;;;;;35.55;9.60;;;2.30;99.90;;;;;;5096112;28;20036;-65
2023/12/06 07:47:39;;;;;;;36.50;10.23;;;2.20;99.90;;;;;;5094949;28;20431;-65
2023/12/06 07:50:06;;;;;;;26.05;11.60;;;2.20;99.90;;;;;;5096118;28;20510;-66
2023/12/06 07:52:33;;;;;;;32.05;11.68;;;2.20;99.90;;;;;;5096210;28;20100;-68
2023/12/06 07:55:00;;;;;;;33.00;10.38;;;2.20;99.90;;;;;;5096042;28;20115;-69
2023/12/06 07:57:28;;;;;;;24.00;11.35;;;2.30;99.90;;;;;;5096518;28;20066;-70
2023/12/06 07:59:55;;;;;;;53.30;11.13;;;2.30;99.90;;;;;;5096385;28;20083;-65
2023/12/06 08:02:22;;;;;;;32.95;11.02;;;2.30;99.90;;;;;;5096057;28;20040;-68
2023/12/06 08:04:48;;;;;;;38.67;12.10;;;2.30;99.90;;;;;;5096118;28;20040;-69
2023/12/06 08:07:15;;;;;;;29.10;11.65;;;2.40;99.90;;;;;;5095184;28;20481;-69
2023/12/06 08:09:42;;;;;;;43.55;11.63;;;2.40;99.90;;;;;;5095640;28;20036;-69
2023/12/06 08:12:09;;;;;;;25.63;11.45;;;2.50;99.90;;;;;;5096202;28;20415;-68
2023/12/06 08:14:38;;;;;;;30.90;10.93;;;2.50;99.90;;;;;;5095865;28;20046;-69
2023/12/06 08:17:05;;;;;;;31.73;10.80;;;2.50;99.90;;;;;;5094236;28;20143;-65
2023/12/06 08:19:32;;;;;;;56.55;11.77;;;2.50;99.90;;;;;;5094948;28;20119;-66
2023/12/06 08:21:59;;;;;;;47.15;10.70;;;2.50;99.90;;;;;;5095603;28;20036;-64
2023/12/06 08:24:26;;;;;;;53.72;11.82;;;2.60;99.90;;;;;;5088354;28;20072;-68
2023/12/06 08:26:53;;;;;;;49.38;14.07;;;2.60;99.90;;;;;;5089104;28;20105;-69
2023/12/06 08:29:20;;;;;;;55.03;13.50;;;2.60;99.90;;;;;;5091994;28;20481;-65
2023/12/06 08:31:47;;;;;;;54.22;13.02;;;2.60;99.90;;;;;;5094711;28;20424;-65
2023/12/06 08:34:14;;;;;;;50.45;13.68;;;2.60;99.90;;;;;;5089930;28;20036;-65
2023/12/06 08:36:41;;;;;;;43.25;12.88;;;2.70;99.90;;;;;;5088741;28;20048;-64
2023/12/06 08:39:08;;;;;;;44.53;13.00;;;2.70;99.90;;;;;;5080582;28;20110;-65
2023/12/06 08:41:35;;;;;;;32.03;13.48;;;2.70;99.90;;;;;;5074597;28;20080;-64
2023/12/06 08:44:04;;;;;;;47.72;13.88;;;2.70;99.90;;;;;;5094161;28;20040;-65
2023/12/06 08:46:31;;;;;;;27.95;12.55;;;2.80;99.90;;;;;;5080473;28;20048;-64
2023/12/06 08:48:58;;;;;;;32.75;12.20;;;2.80;99.90;;;;;;5087818;28;20507;-64
2023/12/06 08:51:25;;;;;;;42.20;12.57;;;2.80;99.90;;;;;;5091053;28;20043;-65
2023/12/06 08:53:51;;;;;;;33.58;13.43;;;2.80;99.90;;;;;;5072852;28;20070;-65
2023/12/06 08:56:18;;;;;;;59.40;12.85;;;2.80;99.90;;;;;;5083217;28;20109;-65
2023/12/06 08:58:45;;;;;;;34.35;12.48;;;2.90;99.90;;;;;;5078725;28;20491;-65
2023/12/06 09:01:12;;;;;;;33.03;13.07;;;2.90;99.90;;;;;;5073994;28;20118;-64
2023/12/06 09:03:39;;;;;;;44.38;12.30;;;2.90;99.90;;;;;;5074165;28;20037;-64
2023/12/06 09:06:07;;;;;;;33.42;12.70;;;2.90;99.90;;;;;;5073905;28;20060;-64
2023/12/06 09:08:34;;;;;;;31.52;12.63;;;2.90;99.90;;;;;;5073797;28;20050;-63
2023/12/06 09:11:01;;;;;;;37.22;13.45;;;2.90;99.90;;;;;;5073909;28;20509;-64
2023/12/06 09:13:28;;;;;;;32.50;12.52;;;2.90;99.90;;;;;;5073748;28;20033;-63
2023/12/06 09:15:55;;;;;;;47.53;12.88;;;2.90;99.90;;;;;;5093548;28;20036;-64
2023/12/06 09:18:22;;;;;;;59.50;13.40;;;2.90;99.90;;;;;;5075512;28;20083;-64
2023/12/06 09:20:48;;;;;;;39.33;12.77;;;2.90;99.90;;;;;;5073641;28;20036;-63
2023/12/06 09:23:15;;;;;;;25.73;11.88;;;3.00;99.90;;;;;;5073815;28;20059;-63
2023/12/06 09:25:42;;;;;;;22.48;15.25;;;3.00;99.90;;;;;;5073790;28;20132;-63
2023/12/06 09:28:10;;;;;;;26.67;15.02;;;3.10;99.90;;;;;;5077667;28;20036;-63
2023/12/06 09:30:39;;;;;;;24.95;15.18;;;3.10;99.90;;;;;;5073800;28;20044;-64
2023/12/06 09:33:06;;;;;;;31.77;14.30;;;3.20;99.90;;;;;;5073936;28;20055;-64
2023/12/06 09:35:33;;;;;;;29.65;14.18;;;3.30;99.90;;;;;;5073407;28;20068;-64
2023/12/06 09:38:00;;;;;;;27.75;14.68;;;3.30;99.90;;;;;;5073554;28;20128;-64
2023/12/06 09:40:28;;;;;;;28.00;13.70;;;3.30;99.90;;;;;;5073737;28;20040;-65
2023/12/06 09:42:55;;;;;;;94.43;13.73;;;3.30;99.90;;;;;;5086069;28;20048;-64
2023/12/06 09:45:24;;;;;;;71.80;12.85;;;3.30;99.90;;;;;;5092796;28;20036;-64
2023/12/06 09:47:51;;;;;;;35.55;13.10;;;3.20;99.90;;;;;;5080916;28;20456;-64
2023/12/06 09:50:18;;;;;;;138.00;14.50;;;3.20;99.90;;;;;;5072173;28;20048;-64
2023/12/06 09:52:45;;;;;;;106.78;13.02;;;3.20;99.90;;;;;;5073312;28;20120;-64
2023/12/06 09:55:12;;;;;;;166.63;14.45;;;3.20;99.90;;;;;;5073274;28;20062;-64
2023/12/06 09:57:39;;;;;;;52.75;14.27;;;3.20;99.90;;;;;;5079040;28;20081;-65
2023/12/06 10:00:05;;;;;;;74.57;14.18;;;3.20;99.90;;;;;;5073506;28;20114;-64
2023/12/06 10:02:37;;;;;;;55.60;12.15;;;3.30;99.90;;;;;;5073448;28;20489;-64
2023/12/06 10:05:09;;;;;;;52.63;12.02;;;3.20;99.90;;;;;;5086430;28;20119;-64
2023/12/06 10:07:36;;;;;;;128.60;13.15;;;3.30;99.90;;;;;;5084237;28;20047;-64
2023/12/06 10:10:03;;;;;;;79.57;11.88;;;3.30;99.90;;;;;;5073148;28;20102;-64
2023/12/06 10:12:29;;;;;;;34.30;10.43;;;3.20;99.90;;;;;;5071809;28;20039;-65
2023/12/06 10:14:56;;;;;;;51.58;12.65;;;3.20;99.90;;;;;;5072898;28;20032;-64
2023/12/06 10:17:23;;;;;;;63.08;13.02;;;3.30;99.90;;;;;;5079643;28;20036;-64
2023/12/06 10:19:50;;;;;;;36.97;11.95;;;3.30;99.90;;;;;;5072965;28;20551;-64
2023/12/06 10:22:17;;;;;;;81.70;12.73;;;3.30;99.90;;;;;;5087493;28;20404;-66
2023/12/06 10:24:44;;;;;;;51.17;12.95;;;3.30;99.90;;;;;;5072982;28;20040;-64
2023/12/06 10:27:11;;;;;;;59.42;13.38;;;3.30;99.90;;;;;;5080282;28;20079;-64
2023/12/06 10:29:39;;;;;;;52.17;12.50;;;3.40;99.90;;;;;;5072885;28;20036;-65
2023/12/06 10:32:05;;;;;;;34.60;11.35;;;3.40;99.90;;;;;;5073211;28;20535;-65
2023/12/06 10:34:32;;;;;;;29.75;12.32;;;3.40;99.90;;;;;;5071592;28;20072;-65
2023/12/06 10:36:59;;;;;;;50.08;11.25;;;3.40;99.90;;;;;;5073082;28;20123;-65
2023/12/06 10:39:29;;;;;;;22.75;10.98;;;3.50;99.90;;;;;;5072905;28;20040;-64
2023/12/06 10:41:56;;;;;;;40.65;11.45;;;3.50;99.90;;;;;;5072794;28;20052;-64
2023/12/06 10:44:23;;;;;;;93.57;11.48;;;3.50;99.90;;;;;;5072958;28;20037;-64
2023/12/06 10:46:50;;;;;;;75.57;10.55;;;3.50;99.90;;;;;;5071430;28;20098;-65
2023/12/06 10:49:30;;;;;;;56.33;11.10;;;3.50;99.90;;;;;;5076203;28;20375;-64
2023/12/06 10:51:57;;;;;;;29.50;10.65;;;3.60;99.90;;;;;;5077723;28;20127;-64
2023/12/06 10:54:23;;;;;;;53.03;12.07;;;3.60;99.90;;;;;;5082251;28;20075;-64
2023/12/06 10:56:50;;;;;;;38.63;11.55;;;3.60;99.90;;;;;;5083990;28;20047;-64
2023/12/06 10:59:17;;;;;;;41.67;11.32;;;3.70;99.90;;;;;;5076591;28;20044;-64
2023/12/06 11:01:44;;;;;;;44.85;11.38;;;3.60;99.90;;;;;;5076517;28;20492;-64
2023/12/06 11:04:12;;;;;;;31.38;12.23;;;3.60;99.90;;;;;;5076688;28;20064;-68
2023/12/06 11:06:38;;;;;;;28.17;11.60;;;3.70;99.90;;;;;;5076643;28;20098;-68
2023/12/06 11:09:05;;;;;;;23.20;12.25;;;3.80;99.90;;;;;;5090048;28;20040;-68
2023/12/06 11:11:32;;;;;;;24.85;11.45;;;3.90;99.90;;;;;;5089110;28;20059;-68
2023/12/06 11:13:59;;;;;;;21.95;13.57;;;3.90;99.90;;;;;;5081960;28;20036;-70
2023/12/06 11:16:26;;;;;;;22.75;12.25;;;4.00;99.90;;;;;;5076364;28;20036;-69
2023/12/06 11:18:53;;;;;;;19.67;11.52;;;4.10;99.90;;;;;;5076358;28;20132;-63
2023/12/06 11:21:20;;;;;;;27.75;12.05;;;4.20;99.90;;;;;;5083167;28;20150;-63
2023/12/06 11:23:46;;;;;;;21.52;11.40;;;4.20;99.90;;;;;;5088031;28;20063;-63
2023/12/06 11:26:13;;;;;;;24.50;10.38;;;4.20;99.90;;;;;;5089260;28;20048;-63
2023/12/06 11:28:40;;;;;;;26.02;11.05;;;4.30;99.90;;;;;;5082586;28;20055;-64
2023/12/06 11:31:07;;;;;;;19.20;12.30;;;4.30;99.90;;;;;;5088087;28;20035;-64
2023/12/06 11:33:34;;;;;;;26.50;14.80;;;4.30;99.90;;;;;;5076073;28;20041;-63
2023/12/06 11:36:02;;;;;;;17.63;11.20;;;4.40;99.90;;;;;;5095509;28;20036;-65
2023/12/06 11:38:28;;;;;;;22.60;12.43;;;4.40;99.90;;;;;;5084545;28;20044;-64
2023/12/06 11:40:56;;;;;;;19.65;12.30;;;4.40;99.90;;;;;;5074640;28;20460;-65
2023/12/06 11:43:23;;;;;;;34.58;13.02;;;4.40;99.90;;;;;;5058106;28;20444;-64
2023/12/06 11:45:50;;;;;;;37.35;11.88;;;4.40;99.90;;;;;;5085163;28;20040;-69
2023/12/06 11:48:17;;;;;;;46.92;10.80;;;4.40;99.90;;;;;;5086808;28;20504;-70
2023/12/06 11:50:44;;;;;;;26.08;11.30;;;4.30;99.90;;;;;;5076398;28;20484;-69
2023/12/06 11:53:11;;;;;;;27.27;11.93;;;4.30;99.90;;;;;;5076040;28;20039;-68
2023/12/06 11:55:38;;;;;;;40.13;11.25;;;4.30;99.90;;;;;;5074389;28;20037;-65
2023/12/06 11:58:05;;;;;;;28.05;11.18;;;4.30;99.90;;;;;;5075929;28;20041;-68
2023/12/06 12:00:32;;;;;;;29.25;11.75;;;4.20;99.90;;;;;;5087756;28;20044;-68
2023/12/06 12:03:00;;;;;;;20.65;11.93;;;4.20;99.90;;;;;;5093729;28;20067;-64
2023/12/06 12:05:27;;;;;;;24.83;12.45;;;4.20;99.90;;;;;;5088518;28;20040;-65
2023/12/06 12:07:55;;;;;;;17.77;12.27;;;4.30;99.90;;;;;;5091429;28;20397;-69
2023/12/06 12:10:22;;;;;;;20.15;12.05;;;4.30;99.90;;;;;;5075883;28;20130;-69
2023/12/06 12:12:49;;;;;;;19.83;11.18;;;4.30;99.90;;;;;;5078604;28;20473;-70
2023/12/06 12:15:18;;;;;;;17.77;11.50;;;4.20;99.90;;;;;;5094756;28;20039;-68
2023/12/06 12:17:45;;;;;;;21.25;12.13;;;4.20;99.90;;;;;;5092728;28;20039;-69
2023/12/06 12:20:12;;;;;;;21.23;13.20;;;4.20;99.90;;;;;;5075807;28;20087;-69
2023/12/06 12:22:39;;;;;;;23.08;12.65;;;4.30;99.90;;;;;;5075037;28;20070;-68
2023/12/06 12:25:06;;;;;;;18.27;12.10;;;4.30;99.90;;;;;;5080689;28;20047;-63
2023/12/06 12:27:33;;;;;;;20.75;13.10;;;4.30;99.90;;;;;;5093744;28;20561;-70
2023/12/06 12:29:59;;;;;;;20.83;12.65;;;4.30;99.90;;;;;;5075032;28;20482;-69
2023/12/06 12:32:28;;;;;;;20.17;12.55;;;4.30;99.90;;;;;;5074741;28;20401;-70
2023/12/06 12:34:55;;;;;;;23.48;13.60;;;4.30;99.90;;;;;;5092884;28;20050;-63
2023/12/06 12:37:22;;;;;;;22.65;13.77;;;4.40;99.90;;;;;;5082122;28;20078;-69
2023/12/06 12:39:49;;;;;;;21.88;13.98;;;4.40;99.90;;;;;;5085182;28;20036;-63
2023/12/06 12:42:16;;;;;;;21.83;13.77;;;4.40;99.90;;;;;;5093086;28;20059;-62